Česky Dansk Deutsch English Español Suomi Français Magyar Italiano Nederlands norsk Polski Português svenska Türkçe

 

Het Weer

Bratsk / Irkutsk (Rusland)

10:30, 3 augustus 2016 (GMT)

NWNNE
WE
SWSSE
Home            
Bratsk / Irkutsk Nizhneudinsk Kirensk Ust'Ordynskij Irkutsk Enisejsk Ulan-Ude Horinsk Abakan Bodajbo Chita Novokuznetsk Mirny Kemerovo Ulan-Bator Novosibirsk Barnaul Polyarny Cul'Man Nizhnevartovsk Hami Surgut Jakutsk

Om een weerknop op uw website of weblog te plaatsen, copieer onderstaande code en plak die in uw pagina. In het eerste vakje staat HTML-code, in het tweede vakje UBB-code.


Add to Google

Details

Wind speed:2 bf, 5.8 kn, 3 m/s, 6.7 miles/h, 10.8 km/h
Wind direction:SSE, 160° - SW, 230°
Visibility: 9000 m, 9.0 km, 29528 ft, 5.6 miles
Temperature:22°C, 72°F
Gefühlte Temperatur:25°C, 77°F
Dew-point:10°C, 50°F
Atmospheric pressure:1016 hPa, 762.1 mmHg, 30.00 inHg, 1.003 atm
Relative humidity:46.4 %
METAR:UIBB 031030Z 20003MPS 160V230 9000 NSC 22/10 Q1016 R30/CLRD60 NOSIG RMK QFE719/0959

Snelkoppelingen

Actuele weersinformatie van de hele wereld. Voeg locaties toe met het plus (+) symbool. Deze snelkoppelingen kunnen worden toegevoegd aan Google.

Lid van de Technetium groep

website free tracking
StatCounter NetStat W3C Validator

13-11-2019 06:37:00
astro.technetium.be money.technetium.be phote.technetium.be tafeltennistafel.technetium.be www.ligfiets.net